Aérodrome :
LOGIN :

S'inscrire | Disclaimer

   EN    FR    IT 

 










Légende :    VFR   VFR Marginal   IFR   IFR Intensif   IFR Très Intensif
Visi : 
Plafond : 
>= 8 km
>= 3000ft
5 à 8 km
1000 à 3000 ft
1500m à 5 km
500 à 1000 ft
800 à 1500m
200 à 500 ft
< 800m
< 200 ft
Symboles :   Orages  Brouillard  Fortes neiges  Fortes précipitations  Vent > 20 kt
SIGMETs :   Divers  Orages  Givrage  Turbulence  Onde Orograph.  Cendres Volcan.







- Altitude de l'aérodrome : 11 ft
- Code IATA : SXL


EISG - Sligo

METARs EXPIRÉS :
  • 231800Z 18006KT 150V220 CAVOK 07/04 Q1000
  • 231730Z 21008KT 170V240 CAVOK 08/04 Q1001
  • 231700Z 21012KT 180V240 CAVOK 08/04 Q1001

TAF TAF EISG
Valide du 23 à 18h jusqu'au 24 à 03h UTC


231700Z 2318/2403 21014KT 9999 SCT018 BKN035
BECMG 2318/2319 17015KT
BECMG 2319/2321 16020G33KT
TEMPO 2322/2402 5000 RA BKN010
BECMG 2321/2323 17024G40KT
TEMPO 2323/2402 19030G46KT
BECMG 2401/2403 22023G35KT
TEMPO 2402/2403 5000 SHRA SCT012 SCT018CB
Pas de NOTAMs connus pour ce terrain.
2 SIGMETs publiés pour la FIR Shannon (EISN) :
 
Turbulence forte
EISN SIGMET 05 VALID 232015/240015 EINN
EISN SHANNON FIR SEV TURB FCST W OF LINE N5100 W01000 - N5420 W01200 SFC/FL060 MOV ENE AT 45KT INTSF=
Annulation du SIGMET 02
EISN SIGMET 04 231542/231830 EINN
EISN SHANNON FIR/UIR CNL SIGMET 02 231530/231830=



MET'MAP, la Météo Aéronautique d'un coup d'oeil ! - Copyright ORBIFLY Décembre 2007 - Disclaimer

ORBIFLY MET'MAP TEAM :

Programmation & Développement : Alexandra Zaïnal
Conception & Développement : Baudouin d'Aumeries
Co-Programmation & Développement : Marc-Olivier Méhu
Soutien technique & logistique : Manuel Goepfert

Contact : metmap@orbifly.com




SOURCES & CREDITS :

   NOAA